createdAt,value
2019-05-15T00:00:32.618Z,494.33
2019-05-15T00:01:30.555Z,495.72
2019-05-15T00:02:30.588Z,497.06
2019-05-15T00:03:30.559Z,497.18
2019-05-15T00:04:30.537Z,494.58
2019-05-15T00:05:30.546Z,494.61
2019-05-15T00:06:30.516Z,495.79
2019-05-15T00:07:30.498Z,494.67
2019-05-15T00:08:30.509Z,494.59
2019-05-15T00:09:30.482Z,495.70
2019-05-15T00:10:30.476Z,495.54
2019-05-15T00:11:30.466Z,496.79
2019-05-15T00:12:30.452Z,495.74
2019-05-15T00:13:30.456Z,496.34
2019-05-15T00:14:30.426Z,493.54
2019-05-15T00:15:30.410Z,496.63
2019-05-15T00:16:30.407Z,493.76
2019-05-15T00:17:30.394Z,497.51
2019-05-15T00:18:30.408Z,493.61
2019-05-15T00:19:30.376Z,494.51
2019-05-15T00:20:30.357Z,494.12
2019-05-15T00:21:30.350Z,493.37
2019-05-15T00:22:30.347Z,493.49
2019-05-15T00:23:30.351Z,492.57
2019-05-15T00:24:30.307Z,494.00
2019-05-15T00:25:30.292Z,495.09
2019-05-15T00:26:30.286Z,494.52
2019-05-15T00:27:30.268Z,494.03
2019-05-15T00:28:30.304Z,495.42
2019-05-15T00:29:30.259Z,493.74
2019-05-15T00:30:30.253Z,494.05
2019-05-15T00:31:30.253Z,496.01
2019-05-15T00:32:30.225Z,496.89
2019-05-15T00:33:30.235Z,497.28
2019-05-15T00:34:30.209Z,495.27
2019-05-15T00:35:30.721Z,495.06
2019-05-15T00:36:30.193Z,492.78
2019-05-15T00:37:30.164Z,493.57
2019-05-15T00:38:30.179Z,495.07
2019-05-15T00:39:30.149Z,496.30
2019-05-15T00:40:30.140Z,496.42
2019-05-15T00:41:30.148Z,493.49
2019-05-15T00:42:30.111Z,494.78
2019-05-15T00:43:30.141Z,497.38
2019-05-15T00:44:30.100Z,492.12
2019-05-15T00:45:30.122Z,496.42
2019-05-15T00:46:30.075Z,495.96
2019-05-15T00:47:30.056Z,495.63
2019-05-15T00:48:30.069Z,496.59
2019-05-15T00:49:30.038Z,495.27
2019-05-15T00:50:30.028Z,497.91
2019-05-15T00:51:30.035Z,496.87
2019-05-15T00:52:29.998Z,496.11
2019-05-15T00:53:30.037Z,492.64
2019-05-15T00:54:29.995Z,497.46
2019-05-15T00:55:29.980Z,495.41
2019-05-15T00:56:29.962Z,494.82
2019-05-15T00:57:29.953Z,495.44
2019-05-15T00:58:29.970Z,497.45
2019-05-15T00:59:30.215Z,497.12
2019-05-15T01:00:29.922Z,495.28
2019-05-15T01:01:29.902Z,497.24
2019-05-15T01:02:29.896Z,494.42
2019-05-15T01:03:29.907Z,494.29
2019-05-15T01:04:29.878Z,492.41
2019-05-15T01:05:29.862Z,488.08
2019-05-15T01:06:29.848Z,493.66
2019-05-15T01:07:29.843Z,491.64
2019-05-15T01:08:29.852Z,496.14
2019-05-15T01:09:29.827Z,492.90
2019-05-15T01:10:29.818Z,495.12
2019-05-15T01:11:29.805Z,491.07
2019-05-15T01:12:29.783Z,494.55
2019-05-15T01:13:29.804Z,495.58
2019-05-15T01:14:29.770Z,492.24
2019-05-15T01:15:29.762Z,495.02
2019-05-15T01:16:29.752Z,496.97
2019-05-15T01:17:29.732Z,494.55
2019-05-15T01:18:29.746Z,493.30
2019-05-15T01:19:29.711Z,495.13
2019-05-15T01:20:29.698Z,496.83
2019-05-15T01:21:29.689Z,491.91
2019-05-15T01:22:29.682Z,491.43
2019-05-15T01:23:29.690Z,492.78
2019-05-15T01:24:29.662Z,493.94
2019-05-15T01:25:29.646Z,492.49
2019-05-15T01:26:29.637Z,495.00
2019-05-15T01:27:29.627Z,495.01
2019-05-15T01:28:29.644Z,496.96
2019-05-15T01:29:40.915Z,495.90
2019-05-15T01:30:30.590Z,493.14
2019-05-15T01:31:29.608Z,495.27
2019-05-15T01:32:29.567Z,493.05
2019-05-15T01:33:29.566Z,495.06
2019-05-15T01:34:29.578Z,497.29
2019-05-15T01:35:29.533Z,495.78
2019-05-15T01:36:29.526Z,494.33
2019-05-15T01:37:29.503Z,494.91
2019-05-15T01:38:29.502Z,494.29
2019-05-15T01:39:29.507Z,496.40
2019-05-15T01:40:29.480Z,493.61
2019-05-15T01:41:29.473Z,491.91
2019-05-15T01:42:29.467Z,487.28
2019-05-15T01:43:29.531Z,494.23
2019-05-15T01:44:29.473Z,495.81
2019-05-15T01:45:29.419Z,494.85
2019-05-15T01:46:30.112Z,496.92
2019-05-15T01:47:29.433Z,495.85
2019-05-15T01:48:29.408Z,491.73
2019-05-15T01:49:29.404Z,494.76
2019-05-15T01:50:29.373Z,494.82
2019-05-15T01:51:29.373Z,496.33
2019-05-15T01:52:29.349Z,491.88
2019-05-15T01:53:29.342Z,493.51
2019-05-15T01:54:29.354Z,495.42
2019-05-15T01:55:29.313Z,496.54
2019-05-15T01:56:29.449Z,495.57
2019-05-15T01:57:29.297Z,494.97
2019-05-15T01:58:29.279Z,497.08
2019-05-15T01:59:29.351Z,496.41
2019-05-15T02:00:29.265Z,492.88
2019-05-15T02:01:29.255Z,494.46
2019-05-15T02:02:29.250Z,497.43
2019-05-15T02:03:29.233Z,495.10
2019-05-15T02:04:29.231Z,496.07
2019-05-15T02:05:29.209Z,498.34
2019-05-15T02:06:29.221Z,492.92
2019-05-15T02:07:29.181Z,490.77
2019-05-15T02:08:29.179Z,496.96
2019-05-15T02:09:29.185Z,490.28
2019-05-15T02:10:29.319Z,497.08
2019-05-15T02:11:29.158Z,493.97
2019-05-15T02:12:29.135Z,497.27
2019-05-15T02:13:29.122Z,494.15
2019-05-15T02:14:29.133Z,487.77
2019-05-15T02:15:29.102Z,475.93
2019-05-15T02:16:29.088Z,469.35
2019-05-15T02:17:29.082Z,469.19
2019-05-15T02:18:29.062Z,471.54
2019-05-15T02:19:29.094Z,481.67
2019-05-15T02:20:29.258Z,483.02
2019-05-15T02:21:29.085Z,481.38
2019-05-15T02:22:29.028Z,475.17
2019-05-15T02:23:29.018Z,480.91
2019-05-15T02:24:29.002Z,483.28
2019-05-15T02:25:29.005Z,480.57
2019-05-15T02:26:28.975Z,479.82
2019-05-15T02:27:29.575Z,475.18
2019-05-15T02:28:29.062Z,473.77
2019-05-15T02:29:28.946Z,473.66
2019-05-15T02:30:33.926Z,470.48
2019-05-15T02:31:30.478Z,472.83
2019-05-15T02:32:30.275Z,476.85
2019-05-15T02:33:30.059Z,473.74
2019-05-15T02:34:29.975Z,472.23
2019-05-15T02:35:29.605Z,469.96
2019-05-15T02:36:29.500Z,470.67
2019-05-15T02:37:29.588Z,463.04
2019-05-15T02:38:29.805Z,470.42
2019-05-15T02:39:29.194Z,475.81
2019-05-15T02:40:29.594Z,482.43
2019-05-15T02:41:29.861Z,472.48
2019-05-15T02:42:29.252Z,472.74
2019-05-15T02:43:29.770Z,477.21
2019-05-15T02:44:29.303Z,480.22
2019-05-15T02:45:30.167Z,475.94
2019-05-15T02:46:30.101Z,480.95
2019-05-15T02:47:29.221Z,479.02
2019-05-15T02:48:29.196Z,482.48
2019-05-15T02:49:30.254Z,484.58
2019-05-15T02:50:29.292Z,483.94
2019-05-15T02:51:29.954Z,482.56
2019-05-15T02:52:29.515Z,489.43
2019-05-15T02:53:29.994Z,482.91
2019-05-15T02:54:29.892Z,488.01
2019-05-15T02:55:29.692Z,488.08
2019-05-15T02:56:29.398Z,485.73
2019-05-15T02:57:29.984Z,486.22
2019-05-15T02:58:29.385Z,490.75
2019-05-15T02:59:29.243Z,491.99
2019-05-15T03:00:37.764Z,491.67
2019-05-15T03:01:29.617Z,482.65
2019-05-15T03:02:28.761Z,491.62
2019-05-15T03:03:29.521Z,490.34
2019-05-15T03:04:29.259Z,488.14
2019-05-15T03:05:29.489Z,495.01
2019-05-15T03:06:29.930Z,489.03
2019-05-15T03:07:29.492Z,492.73
2019-05-15T03:08:29.729Z,493.20
2019-05-15T03:09:29.710Z,492.24
2019-05-15T03:10:29.686Z,490.53
2019-05-15T03:11:29.429Z,491.02
2019-05-15T03:12:29.169Z,494.12
2019-05-15T03:13:29.973Z,490.94
2019-05-15T03:14:29.274Z,487.33
2019-05-15T03:15:29.132Z,491.65
2019-05-15T03:16:30.428Z,495.40
2019-05-15T03:17:29.668Z,490.68
2019-05-15T03:18:29.142Z,493.72
2019-05-15T03:19:29.882Z,487.55
2019-05-15T03:20:29.754Z,493.35
2019-05-15T03:21:29.519Z,489.30
2019-05-15T03:22:29.323Z,490.80
2019-05-15T03:23:29.589Z,489.69
2019-05-15T03:24:29.016Z,492.22
2019-05-15T03:25:29.737Z,493.05
2019-05-15T03:26:29.796Z,492.56
2019-05-15T03:27:30.334Z,488.46
2019-05-15T03:28:29.458Z,491.39
2019-05-15T03:29:29.229Z,490.80
2019-05-15T03:30:32.247Z,489.42
2019-05-15T03:31:50.597Z,493.86
2019-05-15T03:32:42.211Z,491.94
2019-05-15T03:33:35.705Z,490.95
2019-05-15T03:34:37.548Z,490.61
2019-05-15T03:35:32.644Z,491.39
2019-05-15T03:36:31.846Z,487.83
2019-05-15T03:37:33.297Z,493.36
2019-05-15T03:38:29.931Z,489.56
2019-05-15T03:39:29.655Z,489.23
2019-05-15T03:40:30.008Z,492.29
2019-05-15T03:41:29.843Z,493.94
2019-05-15T03:42:29.370Z,491.57
2019-05-15T03:43:29.194Z,493.11
2019-05-15T03:44:28.638Z,487.45
2019-05-15T03:45:29.652Z,491.72
2019-05-15T03:46:29.185Z,492.12
2019-05-15T03:47:30.181Z,491.23
2019-05-15T03:48:28.852Z,490.77
2019-05-15T03:49:29.432Z,486.07
2019-05-15T03:50:28.980Z,493.34
2019-05-15T03:51:28.934Z,490.33
2019-05-15T03:52:29.494Z,491.12
2019-05-15T03:53:29.836Z,492.02
2019-05-15T03:54:29.305Z,487.85
2019-05-15T03:55:29.588Z,490.37
2019-05-15T03:56:29.570Z,487.35
2019-05-15T03:57:30.418Z,487.42
2019-05-15T03:58:28.792Z,488.99
2019-05-15T03:59:29.541Z,494.48
2019-05-15T04:00:30.171Z,490.27
2019-05-15T04:01:33.548Z,495.03
2019-05-15T04:02:29.033Z,490.51
2019-05-15T04:03:29.965Z,488.97
2019-05-15T04:04:29.655Z,487.33
2019-05-15T04:05:29.350Z,492.02
2019-05-15T04:06:29.860Z,485.75
2019-05-15T04:07:29.211Z,493.32
2019-05-15T04:08:29.839Z,488.88
2019-05-15T04:09:29.382Z,492.30
2019-05-15T04:10:28.805Z,486.77
2019-05-15T04:11:29.440Z,487.21
2019-05-15T04:12:29.033Z,491.28
2019-05-15T04:13:30.048Z,488.81
2019-05-15T04:14:29.556Z,489.04
2019-05-15T04:15:30.182Z,490.68
2019-05-15T04:16:29.580Z,491.85
2019-05-15T04:17:29.473Z,491.80
2019-05-15T04:18:29.143Z,488.70
2019-05-15T04:19:29.614Z,492.05
2019-05-15T04:20:29.678Z,488.56
2019-05-15T04:21:30.340Z,489.69
2019-05-15T04:22:29.154Z,490.60
2019-05-15T04:23:30.083Z,492.48
2019-05-15T04:24:30.095Z,489.63
2019-05-15T04:25:29.740Z,491.14
2019-05-15T04:26:28.631Z,489.93
2019-05-15T04:27:29.035Z,488.07
2019-05-15T04:28:29.231Z,489.04
2019-05-15T04:29:28.992Z,490.91
2019-05-15T04:30:30.518Z,488.10
2019-05-15T04:31:35.411Z,486.29
2019-05-15T04:32:29.079Z,482.76
2019-05-15T04:33:29.411Z,486.95
2019-05-15T04:34:29.054Z,486.28
2019-05-15T04:35:28.925Z,486.50
2019-05-15T04:36:29.636Z,483.73
2019-05-15T04:37:29.868Z,484.09
2019-05-15T04:38:29.305Z,486.30
2019-05-15T04:39:29.641Z,483.49
2019-05-15T04:40:29.858Z,488.58
2019-05-15T04:41:29.901Z,488.15
2019-05-15T04:42:29.923Z,487.75
2019-05-15T04:43:30.264Z,486.92
2019-05-15T04:44:29.055Z,483.04
2019-05-15T04:45:34.416Z,481.23
2019-05-15T04:46:29.925Z,487.18
2019-05-15T04:47:30.271Z,482.96
2019-05-15T04:48:29.018Z,489.02
2019-05-15T04:49:29.052Z,485.17
2019-05-15T04:50:28.774Z,489.34
2019-05-15T04:51:30.447Z,486.15
2019-05-15T04:52:30.525Z,486.43
2019-05-15T04:53:32.751Z,487.55
2019-05-15T04:54:28.856Z,489.56
2019-05-15T04:55:28.967Z,486.42
2019-05-15T04:56:29.307Z,487.57
2019-05-15T04:57:33.462Z,490.34
2019-05-15T04:58:29.655Z,485.86
2019-05-15T04:59:30.032Z,490.61
2019-05-15T05:00:29.259Z,489.92
2019-05-15T05:01:28.844Z,484.32
2019-05-15T05:02:31.666Z,490.15
2019-05-15T05:03:29.188Z,487.76
2019-05-15T05:04:29.518Z,491.72
2019-05-15T05:05:29.376Z,488.07
2019-05-15T05:06:29.425Z,489.73
2019-05-15T05:07:29.574Z,489.95
2019-05-15T05:08:29.059Z,484.88
2019-05-15T05:09:28.878Z,489.61
2019-05-15T05:10:29.013Z,490.13
2019-05-15T05:11:28.776Z,486.92
2019-05-15T05:12:28.981Z,488.61
2019-05-15T05:13:28.631Z,492.00
2019-05-15T05:14:28.552Z,492.12
2019-05-15T05:15:29.268Z,487.45
2019-05-15T05:16:29.506Z,490.53
2019-05-15T05:17:28.850Z,492.98
2019-05-15T05:18:29.514Z,492.97
2019-05-15T05:19:28.567Z,493.21
2019-05-15T05:20:28.750Z,483.01
2019-05-15T05:21:27.849Z,487.67
2019-05-15T05:22:28.233Z,489.13
2019-05-15T05:23:28.355Z,487.84
2019-05-15T05:24:28.066Z,490.98
2019-05-15T05:25:27.994Z,491.75
2019-05-15T05:26:29.215Z,489.83
2019-05-15T05:27:28.868Z,491.22
2019-05-15T05:28:29.001Z,491.49
2019-05-15T05:29:28.014Z,490.96
2019-05-15T05:30:29.168Z,493.90
2019-05-15T05:31:29.065Z,485.45
2019-05-15T05:32:33.871Z,488.58
2019-05-15T05:33:28.631Z,492.45
2019-05-15T05:34:28.390Z,492.82
2019-05-15T05:35:27.902Z,490.45
2019-05-15T05:36:27.932Z,491.01
2019-05-15T05:37:27.974Z,490.83
2019-05-15T05:38:28.169Z,489.78
2019-05-15T05:39:29.277Z,488.49
2019-05-15T05:40:29.153Z,486.59
2019-05-15T05:41:28.089Z,484.09
2019-05-15T05:42:29.023Z,488.29
2019-05-15T05:43:26.866Z,491.11
2019-05-15T05:44:29.037Z,491.61
2019-05-15T05:45:28.703Z,490.57
2019-05-15T05:46:28.067Z,491.04
2019-05-15T05:47:28.718Z,492.06
2019-05-15T05:48:29.087Z,494.88
2019-05-15T05:49:28.770Z,491.80
2019-05-15T05:50:28.809Z,492.75
2019-05-15T05:51:28.198Z,491.99
2019-05-15T05:52:28.031Z,490.21
2019-05-15T05:53:28.657Z,492.79
2019-05-15T05:54:28.794Z,484.66
2019-05-15T05:55:28.739Z,489.53
2019-05-15T05:56:28.671Z,487.22
2019-05-15T05:57:27.961Z,492.31
2019-05-15T05:58:29.444Z,489.61
2019-05-15T05:59:28.395Z,492.88
2019-05-15T06:00:28.590Z,492.29
2019-05-15T06:01:28.245Z,491.00
2019-05-15T06:02:28.041Z,493.87
2019-05-15T06:03:28.066Z,490.52
2019-05-15T06:04:27.900Z,491.66
2019-05-15T06:05:28.127Z,490.42
2019-05-15T06:06:29.094Z,489.48
2019-05-15T06:07:27.929Z,494.62
2019-05-15T06:08:28.254Z,494.91
2019-05-15T06:09:27.786Z,496.07
2019-05-15T06:10:28.967Z,487.14
2019-05-15T06:11:27.733Z,476.10
2019-05-15T06:12:28.168Z,485.85
2019-05-15T06:13:28.921Z,487.98
2019-05-15T06:14:28.696Z,488.47
2019-05-15T06:15:28.526Z,492.86
2019-05-15T06:16:28.370Z,490.55
2019-05-15T06:17:28.053Z,494.29
2019-05-15T06:18:28.114Z,494.20
2019-05-15T06:19:27.798Z,489.62
2019-05-15T06:20:28.297Z,487.09
2019-05-15T06:21:28.398Z,491.76
2019-05-15T06:22:27.675Z,488.39
2019-05-15T06:23:32.138Z,493.27
2019-05-15T06:24:30.545Z,490.47
2019-05-15T06:25:30.250Z,493.03
2019-05-15T06:26:28.269Z,494.54
2019-05-15T06:27:29.877Z,494.47
2019-05-15T06:28:28.660Z,494.82
2019-05-15T06:29:28.256Z,494.26
2019-05-15T06:30:29.874Z,493.40
2019-05-15T06:31:28.106Z,493.31
2019-05-15T06:32:28.847Z,493.34
2019-05-15T06:33:27.812Z,491.90
2019-05-15T06:34:28.443Z,485.00
2019-05-15T06:35:30.907Z,464.98
2019-05-15T06:36:28.838Z,470.94
2019-05-15T06:37:28.529Z,484.37
2019-05-15T06:38:30.584Z,482.35
2019-05-15T06:39:28.265Z,487.85
2019-05-15T06:40:28.746Z,486.17
2019-05-15T06:41:28.478Z,484.67
2019-05-15T06:42:28.346Z,486.24
2019-05-15T06:43:28.085Z,492.04
2019-05-15T06:44:28.062Z,490.05
2019-05-15T06:45:28.345Z,493.37
2019-05-15T06:46:28.147Z,501.49
2019-05-15T06:47:28.360Z,500.05
2019-05-15T06:48:26.106Z,501.56
2019-05-15T06:49:28.473Z,501.63
2019-05-15T06:50:26.078Z,503.17
2019-05-15T06:51:26.068Z,509.59
2019-05-15T06:52:28.302Z,504.32
2019-05-15T06:53:26.054Z,503.04
2019-05-15T06:54:28.340Z,499.48
2019-05-15T06:55:26.024Z,499.09
2019-05-15T06:56:28.157Z,501.59
2019-05-15T06:57:28.573Z,495.67
2019-05-15T06:58:25.998Z,498.00
2019-05-15T06:59:26.008Z,499.45
2019-05-15T07:00:28.234Z,498.60
2019-05-15T07:01:25.963Z,500.94
2019-05-15T07:02:28.359Z,507.14
2019-05-15T07:03:29.051Z,507.17
2019-05-15T07:04:25.945Z,506.21
2019-05-15T07:05:25.921Z,509.69
2019-05-15T07:06:25.902Z,506.17
2019-05-15T07:07:25.915Z,501.54
2019-05-15T07:08:25.876Z,504.99
2019-05-15T07:09:28.404Z,506.57
2019-05-15T07:10:28.658Z,504.09
2019-05-15T07:11:28.063Z,506.60
2019-05-15T07:12:27.965Z,506.83
2019-05-15T07:13:25.867Z,507.44
2019-05-15T07:14:25.842Z,504.87
2019-05-15T07:15:27.872Z,502.72
2019-05-15T07:16:28.215Z,504.23
2019-05-15T07:17:25.791Z,503.73
2019-05-15T07:18:28.164Z,502.31
2019-05-15T07:19:28.319Z,508.11
2019-05-15T07:20:28.358Z,506.37
2019-05-15T07:21:25.758Z,506.19
2019-05-15T07:22:25.724Z,508.30
2019-05-15T07:23:28.114Z,512.26
2019-05-15T07:24:25.709Z,506.93
2019-05-15T07:25:25.733Z,506.05
2019-05-15T07:26:25.678Z,503.76
2019-05-15T07:27:28.166Z,505.45
2019-05-15T07:28:25.670Z,504.66
2019-05-15T07:29:25.710Z,507.95
2019-05-15T07:30:25.654Z,502.83
2019-05-15T07:31:25.618Z,503.24
2019-05-15T07:32:28.386Z,509.32
2019-05-15T07:33:38.861Z,504.56
2019-05-15T07:34:28.366Z,507.52
2019-05-15T07:35:25.634Z,504.68
2019-05-15T07:36:25.584Z,503.52
2019-05-15T07:37:25.560Z,503.21
2019-05-15T07:38:25.542Z,502.71
2019-05-15T07:39:25.573Z,507.55
2019-05-15T07:40:25.559Z,509.98
2019-05-15T07:41:25.501Z,508.05
2019-05-15T07:42:25.502Z,508.32
2019-05-15T07:43:27.924Z,506.63
2019-05-15T07:44:28.046Z,509.56
2019-05-15T07:45:28.116Z,512.12
2019-05-15T07:46:25.460Z,508.95
2019-05-15T07:47:25.457Z,512.26
2019-05-15T07:48:25.456Z,504.16
2019-05-15T07:49:25.432Z,523.07
2019-05-15T07:50:25.436Z,501.11
2019-05-15T07:51:25.417Z,528.14
2019-05-15T07:52:25.387Z,525.40
2019-05-15T07:53:25.374Z,527.51
2019-05-15T07:54:25.363Z,502.03
2019-05-15T07:55:25.376Z,524.11
2019-05-15T07:56:25.361Z,505.68
2019-05-15T07:57:25.332Z,524.10
2019-05-15T07:58:27.660Z,501.98
2019-05-15T07:59:25.307Z,524.75
2019-05-15T08:00:25.321Z,504.89
2019-05-15T08:01:25.299Z,528.15
2019-05-15T08:02:25.288Z,505.35
2019-05-15T08:03:25.267Z,524.86
2019-05-15T08:04:29.126Z,502.58
2019-05-15T08:05:28.437Z,527.13
2019-05-15T08:06:25.239Z,502.98
2019-05-15T08:07:25.226Z,526.47
2019-05-15T08:08:25.230Z,497.83
2019-05-15T08:09:25.205Z,523.24
2019-05-15T08:10:25.214Z,502.13
2019-05-15T08:11:25.189Z,499.81
2019-05-15T08:12:25.178Z,501.47
2019-05-15T08:13:25.152Z,498.57
2019-05-15T08:14:25.158Z,498.90
2019-05-15T08:15:25.170Z,497.57
2019-05-15T08:16:25.128Z,504.22
2019-05-15T08:17:25.120Z,516.75
2019-05-15T08:18:25.108Z,501.90
2019-05-15T08:19:25.103Z,524.75
2019-05-15T08:20:25.079Z,505.53
2019-05-15T08:21:25.095Z,520.52
2019-05-15T08:22:25.057Z,504.96
2019-05-15T08:23:25.045Z,504.43
2019-05-15T08:24:25.037Z,502.84
2019-05-15T08:25:32.349Z,526.14
2019-05-15T08:26:28.182Z,498.36
2019-05-15T08:27:25.009Z,519.19
2019-05-15T08:28:24.999Z,501.97
2019-05-15T08:29:24.977Z,506.85
2019-05-15T08:30:24.964Z,500.50
2019-05-15T08:31:25.054Z,527.31
2019-05-15T08:32:24.977Z,499.22
2019-05-15T08:33:24.936Z,504.83
2019-05-15T08:34:24.925Z,514.49
2019-05-15T08:35:24.916Z,507.69
2019-05-15T08:36:24.932Z,508.70
2019-05-15T08:37:24.881Z,525.41
2019-05-15T08:38:24.881Z,504.94
2019-05-15T08:39:24.887Z,509.94
2019-05-15T08:40:24.855Z,509.74
2019-05-15T08:41:24.861Z,502.42
2019-05-15T08:42:24.832Z,507.79
2019-05-15T08:43:24.838Z,506.88
2019-05-15T08:44:24.814Z,508.68
2019-05-15T08:45:24.800Z,526.30
2019-05-15T08:46:24.818Z,493.24
2019-05-15T08:47:24.775Z,503.44
2019-05-15T08:48:24.819Z,502.16
2019-05-15T08:49:24.755Z,534.99
2019-05-15T08:50:24.751Z,510.67
2019-05-15T08:51:24.763Z,527.65
2019-05-15T08:52:24.721Z,508.75
2019-05-15T08:53:24.716Z,529.59
2019-05-15T08:54:24.739Z,506.27
2019-05-15T08:55:24.688Z,526.16
2019-05-15T08:56:24.700Z,502.35
2019-05-15T08:57:24.679Z,532.38
2019-05-15T08:58:24.672Z,505.86
2019-05-15T08:59:24.647Z,504.89
2019-05-15T09:00:24.642Z,511.66
2019-05-15T09:01:24.652Z,532.03
2019-05-15T09:02:24.627Z,506.57
2019-05-15T09:03:24.613Z,530.57
2019-05-15T09:04:30.375Z,498.00
2019-05-15T09:05:25.583Z,494.26
2019-05-15T09:06:24.592Z,503.67
2019-05-15T09:07:24.568Z,504.54
2019-05-15T09:08:24.549Z,501.54
2019-05-15T09:09:24.531Z,506.66
2019-05-15T09:10:24.563Z,503.56
2019-05-15T09:11:24.541Z,504.99
2019-05-15T09:12:24.507Z,500.39
2019-05-15T09:13:24.494Z,507.73
2019-05-15T09:14:24.490Z,500.97
2019-05-15T09:15:24.490Z,527.83
2019-05-15T09:16:24.482Z,507.49
2019-05-15T09:17:24.501Z,506.80
2019-05-15T09:18:24.428Z,502.70
2019-05-15T09:19:24.445Z,497.88
2019-05-15T09:20:24.412Z,496.78
2019-05-15T09:21:24.437Z,498.07
2019-05-15T09:22:24.490Z,517.55
2019-05-15T09:23:24.395Z,497.31
2019-05-15T09:24:24.390Z,522.51
2019-05-15T09:25:24.367Z,499.87
2019-05-15T09:26:24.397Z,496.59
2019-05-15T09:27:24.349Z,497.64
2019-05-15T09:28:24.323Z,527.09
2019-05-15T09:29:24.314Z,499.82
2019-05-15T09:30:24.312Z,500.78
2019-05-15T09:31:24.305Z,502.33
2019-05-15T09:32:24.275Z,502.59
2019-05-15T09:33:24.271Z,518.08
2019-05-15T09:34:24.264Z,505.81
2019-05-15T09:35:24.243Z,494.80
2019-05-15T09:36:24.255Z,523.75
2019-05-15T09:37:24.218Z,501.98
2019-05-15T09:38:24.212Z,496.13
2019-05-15T09:39:24.196Z,500.68
2019-05-15T09:40:37.900Z,500.40
2019-05-15T09:41:25.307Z,499.20
2019-05-15T09:42:24.180Z,506.55
2019-05-15T09:43:24.152Z,500.04
2019-05-15T09:44:24.141Z,493.84
2019-05-15T09:45:24.144Z,499.40
2019-05-15T09:46:24.160Z,502.54
2019-05-15T09:47:24.118Z,499.06
2019-05-15T09:48:24.098Z,504.91
2019-05-15T09:49:24.107Z,495.63
2019-05-15T09:50:24.134Z,523.34
2019-05-15T09:51:24.087Z,495.26
2019-05-15T09:52:24.065Z,524.28
2019-05-15T09:53:24.060Z,517.16
2019-05-15T09:54:25.710Z,500.83
2019-05-15T09:55:24.021Z,496.73
2019-05-15T09:56:24.059Z,519.35
2019-05-15T09:57:23.999Z,501.00
2019-05-15T09:58:23.996Z,521.60
2019-05-15T09:59:23.993Z,503.96
2019-05-15T10:00:23.979Z,522.32
2019-05-15T10:01:24.041Z,503.96
2019-05-15T10:02:23.989Z,521.24
2019-05-15T10:03:23.958Z,509.64
2019-05-15T10:04:23.937Z,498.61
2019-05-15T10:05:23.911Z,522.28
2019-05-15T10:06:23.910Z,504.46
2019-05-15T10:07:23.917Z,494.84
2019-05-15T10:08:23.901Z,498.48
2019-05-15T10:09:23.898Z,496.19
2019-05-15T10:10:23.865Z,500.96
2019-05-15T10:11:23.841Z,495.71
2019-05-15T10:12:23.859Z,494.87
2019-05-15T10:13:23.841Z,501.31
2019-05-15T10:14:23.812Z,499.10
2019-05-15T10:15:23.803Z,501.95
2019-05-15T10:16:23.792Z,499.69
2019-05-15T10:17:23.807Z,498.03
2019-05-15T10:18:23.766Z,501.65
2019-05-15T10:19:23.813Z,503.09
2019-05-15T10:20:23.737Z,500.88
2019-05-15T10:21:28.940Z,503.20
2019-05-15T10:22:24.746Z,521.17
2019-05-15T10:23:23.719Z,493.18
2019-05-15T10:24:23.704Z,517.65
2019-05-15T10:25:23.695Z,500.97
2019-05-15T10:26:23.701Z,526.07
2019-05-15T10:27:23.682Z,518.86
2019-05-15T10:28:23.660Z,519.37
2019-05-15T10:29:23.648Z,499.78
2019-05-15T10:30:23.633Z,522.29
2019-05-15T10:31:23.624Z,499.76
2019-05-15T10:32:23.661Z,499.27
2019-05-15T10:33:23.609Z,501.03
2019-05-15T10:34:23.592Z,499.13
2019-05-15T10:35:28.070Z,502.57
2019-05-15T10:36:24.566Z,521.21
2019-05-15T10:37:23.581Z,497.88
2019-05-15T10:38:23.554Z,501.42
2019-05-15T10:39:23.565Z,500.34
2019-05-15T10:40:23.537Z,527.08
2019-05-15T10:41:23.516Z,496.01
2019-05-15T10:42:23.518Z,497.09
2019-05-15T10:43:23.487Z,494.19
2019-05-15T10:44:23.483Z,498.71
2019-05-15T10:45:23.464Z,497.15
2019-05-15T10:46:23.452Z,503.17
2019-05-15T10:47:23.540Z,498.94
2019-05-15T10:48:23.444Z,503.67
2019-05-15T10:49:23.439Z,504.27
2019-05-15T10:50:23.417Z,500.97
2019-05-15T10:51:24.309Z,499.81
2019-05-15T10:52:23.433Z,520.80
2019-05-15T10:53:23.380Z,516.31
2019-05-15T10:54:23.379Z,513.31
2019-05-15T10:55:23.354Z,511.53
2019-05-15T10:56:23.362Z,496.42
2019-05-15T10:57:23.362Z,495.60
2019-05-15T10:58:23.357Z,501.85
2019-05-15T10:59:23.318Z,496.67
2019-05-15T11:00:23.326Z,499.42
2019-05-15T11:01:23.310Z,503.13
2019-05-15T11:02:23.285Z,499.75
2019-05-15T11:03:23.299Z,504.84
2019-05-15T11:04:23.259Z,496.46
2019-05-15T11:05:37.357Z,499.83
2019-05-15T11:06:24.237Z,497.20
2019-05-15T11:07:23.224Z,503.83
2019-05-15T11:08:23.233Z,501.44
2019-05-15T11:09:23.196Z,500.51
2019-05-15T11:10:23.192Z,503.70
2019-05-15T11:11:23.197Z,500.40
2019-05-15T11:12:23.173Z,504.56
2019-05-15T11:13:23.185Z,498.22
2019-05-15T11:14:23.143Z,499.96
2019-05-15T11:15:23.148Z,500.89
2019-05-15T11:16:23.127Z,498.93
2019-05-15T11:17:23.139Z,497.17
2019-05-15T11:18:23.229Z,496.89
2019-05-15T11:19:23.083Z,501.53
2019-05-15T11:20:23.081Z,496.41
2019-05-15T11:21:23.066Z,493.25
2019-05-15T11:22:23.098Z,501.95
2019-05-15T11:23:23.133Z,500.65
2019-05-15T11:24:23.045Z,495.64
2019-05-15T11:25:23.033Z,497.15
2019-05-15T11:26:23.134Z,495.62
2019-05-15T11:27:23.004Z,497.08
2019-05-15T11:28:23.016Z,495.88
2019-05-15T11:29:23.109Z,496.63
2019-05-15T11:30:22.980Z,494.02
2019-05-15T11:31:24.788Z,493.75
2019-05-15T11:32:22.949Z,495.32
2019-05-15T11:33:22.965Z,506.55
2019-05-15T11:34:22.937Z,494.87
2019-05-15T11:35:22.934Z,499.02
2019-05-15T11:36:22.891Z,497.36
2019-05-15T11:37:22.885Z,496.98
2019-05-15T11:38:23.372Z,493.68
2019-05-15T11:39:22.877Z,499.81
2019-05-15T11:40:22.863Z,496.57
2019-05-15T11:41:22.845Z,496.59
2019-05-15T11:42:22.839Z,499.83
2019-05-15T11:43:22.858Z,492.67
2019-05-15T11:44:22.809Z,497.72
2019-05-15T11:45:22.813Z,489.87
2019-05-15T11:46:25.680Z,495.35
2019-05-15T11:47:23.777Z,496.49
2019-05-15T11:48:22.796Z,494.91
2019-05-15T11:49:22.754Z,497.77
2019-05-15T11:50:22.758Z,493.86
2019-05-15T11:51:22.745Z,494.60
2019-05-15T11:52:22.733Z,494.31
2019-05-15T11:53:22.745Z,495.74
2019-05-15T11:54:22.699Z,495.34
2019-05-15T11:55:22.713Z,496.29
2019-05-15T11:56:22.709Z,495.90
2019-05-15T11:57:37.156Z,496.37
2019-05-15T11:58:23.682Z,499.35
2019-05-15T11:59:22.669Z,495.18
2019-05-15T12:00:27.259Z,501.11
2019-05-15T12:01:23.628Z,504.07
2019-05-15T12:02:22.634Z,501.42
2019-05-15T12:03:24.835Z,499.73
2019-05-15T12:04:29.762Z,501.19
2019-05-15T12:05:23.576Z,494.53
2019-05-15T12:06:23.126Z,500.91
2019-05-15T12:07:22.562Z,501.26
2019-05-15T12:08:22.578Z,495.52
2019-05-15T12:09:22.537Z,497.69
2019-05-15T12:10:22.575Z,499.39
2019-05-15T12:11:33.301Z,495.52
2019-05-15T12:12:23.522Z,489.00
2019-05-15T12:13:22.534Z,497.32
2019-05-15T12:14:22.501Z,499.69
2019-05-15T12:15:22.460Z,497.52
2019-05-15T12:16:22.510Z,503.41
2019-05-15T12:17:22.445Z,509.63
2019-05-15T12:18:22.466Z,499.02
2019-05-15T12:19:22.424Z,501.10
2019-05-15T12:20:22.422Z,503.66
2019-05-15T12:21:22.399Z,501.95
2019-05-15T12:22:22.396Z,505.64
2019-05-15T12:23:22.404Z,494.40
2019-05-15T12:24:22.369Z,501.14
2019-05-15T12:25:22.363Z,499.00
2019-05-15T12:26:22.339Z,495.96
2019-05-15T12:27:22.342Z,493.89
2019-05-15T12:28:22.352Z,503.20